Time;durP1;ratioP1;P1;durP2;ratioP2;P2;SDS_P1;SDS_P2;PMS_P1;PMS_P2;Temp;Humidity;BMP_temperature;BMP_pressure;BME280_temperature;BME280_humidity;BME280_pressure;Samples;Min_cycle;Max_cycle;Signal;HPM_P1;HPM_P2
2020/12/17 00:01:56;;;;;;;29.33;26.40;;;5.80;99.90;;;;;;4974326;28;20450;-86
2020/12/17 00:04:22;;;;;;;34.47;29.20;;;5.70;99.90;;;;;;4974374;28;20533;-87
2020/12/17 00:06:50;;;;;;;29.97;27.20;;;5.70;99.90;;;;;;4974598;28;20809;-86
2020/12/17 00:09:16;;;;;;;33.00;29.57;;;5.70;99.90;;;;;;4962292;28;20544;-87
2020/12/17 00:11:42;;;;;;;31.07;27.80;;;5.70;99.90;;;;;;4955207;29;20452;-87
2020/12/17 00:14:08;;;;;;;33.83;30.23;;;5.60;99.90;;;;;;4955136;29;20469;-87
2020/12/17 00:16:34;;;;;;;31.30;28.37;;;5.60;99.90;;;;;;4953606;28;20456;-87
2020/12/17 00:19:00;;;;;;;32.13;28.70;;;5.60;99.90;;;;;;4954949;29;20529;-86
2020/12/17 00:21:27;;;;;;;31.23;27.93;;;5.50;99.90;;;;;;4954821;29;20462;-85
2020/12/17 00:23:55;;;;;;;30.20;26.73;;;5.50;99.90;;;;;;4954839;29;20511;-85
2020/12/17 00:26:25;;;;;;;32.27;28.77;;;5.50;99.90;;;;;;4954790;29;20835;-86
2020/12/17 00:28:51;;;;;;;31.50;28.03;;;5.50;99.90;;;;;;4954856;29;20464;-86
2020/12/17 00:31:18;;;;;;;31.23;28.13;;;5.50;99.90;;;;;;4954579;29;20452;-86
2020/12/17 00:33:44;;;;;;;30.13;27.20;;;5.60;99.90;;;;;;4954581;29;20448;-83
2020/12/17 00:36:11;;;;;;;33.70;30.33;;;5.60;99.90;;;;;;4954328;29;20446;-82
2020/12/17 00:38:37;;;;;;;34.87;30.10;;;5.60;99.90;;;;;;4954551;29;20459;-81
2020/12/17 00:41:04;;;;;;;31.10;27.30;;;5.60;99.90;;;;;;4954488;29;20452;-80
2020/12/17 00:43:31;;;;;;;27.93;25.00;;;5.60;99.90;;;;;;4954614;29;20451;-80
2020/12/17 00:45:57;;;;;;;29.20;26.30;;;5.60;99.90;;;;;;4954151;29;20488;-81
2020/12/17 00:48:23;;;;;;;25.87;23.60;;;5.50;99.90;;;;;;4954534;29;20792;-86
2020/12/17 00:50:49;;;;;;;30.10;27.10;;;5.50;99.90;;;;;;4954224;29;20453;-87
2020/12/17 00:53:15;;;;;;;27.33;24.70;;;5.50;99.90;;;;;;4954613;29;20447;-89
2020/12/17 00:55:41;;;;;;;28.93;26.23;;;5.40;99.90;;;;;;4955339;29;20454;-89
2020/12/17 00:58:09;;;;;;;28.67;25.97;;;5.30;99.90;;;;;;5476608;23;20491;-85
2020/12/17 01:01:27;;;;;;;;;;;;;;;;;;;;;
2020/12/17 01:03:53;;;;;;;28.83;25.53;;;5.20;99.90;;;;;;4946755;28;20845;-85
2020/12/17 01:06:20;;;;;;;31.37;28.00;;;5.20;99.90;;;;;;4975433;28;20946;-86
2020/12/17 01:08:46;;;;;;;26.67;24.07;;;5.10;99.90;;;;;;4966015;28;20473;-85
2020/12/17 01:11:12;;;;;;;28.97;26.20;;;5.10;99.90;;;;;;4953760;28;20509;-86
2020/12/17 01:13:39;;;;;;;27.70;25.00;;;5.10;99.90;;;;;;4953972;28;20507;-86
2020/12/17 01:16:08;;;;;;;29.63;26.70;;;5.10;99.90;;;;;;4953895;28;20457;-83
2020/12/17 01:18:34;;;;;;;29.13;26.33;;;5.00;99.90;;;;;;4953831;28;20482;-85
2020/12/17 01:21:04;;;;;;;31.13;27.70;;;5.00;99.90;;;;;;4958002;28;20464;-86
2020/12/17 01:23:30;;;;;;;29.83;26.77;;;5.00;99.90;;;;;;4962825;28;20448;-88
2020/12/17 01:25:56;;;;;;;32.13;28.87;;;5.00;99.90;;;;;;4958197;28;20466;-85
2020/12/17 01:28:22;;;;;;;28.83;25.93;;;5.00;99.90;;;;;;4955085;28;20458;-86
2020/12/17 01:30:50;;;;;;;25.67;23.00;;;5.00;99.90;;;;;;4960353;28;20560;-88
2020/12/17 01:35:54;;;;;;;29.23;26.13;;;5.00;99.90;;;;;;5388433;23;21007;-86
2020/12/17 01:38:34;;;;;;;;;;;;;;;;;;;;;
2020/12/17 01:41:25;;;;;;;30.67;27.57;;;5.00;99.90;;;;;;4992814;28;20782;-88
2020/12/17 01:43:52;;;;;;;28.90;25.80;;;4.90;99.90;;;;;;4995288;28;20442;-86
2020/12/17 01:49:35;;;;;;;29.47;26.53;;;4.90;99.90;;;;;;4936864;29;20525;-87
2020/12/17 01:56:27;;;;;;;28.90;26.03;;;4.80;99.90;;;;;;4796015;29;20565;-85
2020/12/17 01:58:57;;;;;;;25.40;22.97;;;4.70;99.90;;;;;;4898345;29;20488;-82
2020/12/17 02:01:27;;;;;;;25.13;22.70;;;4.60;99.90;;;;;;4962178;28;20478;-81
2020/12/17 02:03:54;;;;;;;27.43;24.80;;;4.60;99.90;;;;;;4991542;28;20451;-81
2020/12/17 02:06:22;;;;;;;25.87;23.40;;;4.60;99.90;;;;;;4991336;28;20813;-81
2020/12/17 02:08:51;;;;;;;29.10;25.97;;;4.50;99.90;;;;;;4991847;28;20466;-86
2020/12/17 02:16:28;;;;;;;30.13;26.43;;;4.50;99.90;;;;;;5031081;23;21033;-85
2020/12/17 02:18:54;;;;;;;29.63;26.73;;;4.50;99.90;;;;;;4975888;28;20983;-85
2020/12/17 02:21:22;;;;;;;30.77;27.63;;;4.50;99.90;;;;;;4971977;28;20448;-84
2020/12/17 02:23:48;;;;;;;32.80;29.50;;;4.50;99.90;;;;;;4972059;28;20462;-84
2020/12/17 02:26:16;;;;;;;31.10;28.00;;;4.50;99.90;;;;;;4972108;28;20458;-83
2020/12/17 02:28:42;;;;;;;30.73;27.60;;;4.50;99.90;;;;;;4972326;28;20452;-84
2020/12/17 02:31:09;;;;;;;37.93;33.90;;;4.50;99.90;;;;;;4971781;28;20456;-85
2020/12/17 02:33:35;;;;;;;38.20;34.33;;;4.40;99.90;;;;;;4971697;28;20447;-83
2020/12/17 02:36:01;;;;;;;37.07;33.33;;;4.40;99.90;;;;;;4971980;28;20448;-83
2020/12/17 02:38:27;;;;;;;42.07;37.57;;;4.40;99.90;;;;;;4971356;28;20510;-83
2020/12/17 02:40:53;;;;;;;42.57;37.93;;;4.30;99.90;;;;;;4971553;28;20487;-84
2020/12/17 02:43:20;;;;;;;53.53;42.77;;;4.30;99.90;;;;;;4971531;28;20462;-84
2020/12/17 02:45:47;;;;;;;49.77;40.50;;;4.30;99.90;;;;;;4971319;28;20456;-83
2020/12/17 02:48:14;;;;;;;47.40;39.97;;;4.30;99.90;;;;;;4972090;28;20457;-85
2020/12/17 02:50:41;;;;;;;48.07;41.10;;;4.30;99.90;;;;;;4971797;28;20459;-81
2020/12/17 02:53:08;;;;;;;44.83;40.20;;;4.30;99.90;;;;;;4971399;28;20452;-83
2020/12/17 02:55:34;;;;;;;42.97;38.70;;;4.30;99.90;;;;;;4971166;28;20491;-82
2020/12/17 02:58:01;;;;;;;35.20;31.00;;;4.30;99.90;;;;;;4971393;28;20475;-82
2020/12/17 03:00:28;;;;;;;33.83;30.40;;;4.30;99.90;;;;;;4971719;28;20510;-81
2020/12/17 03:02:54;;;;;;;31.43;28.43;;;4.30;99.90;;;;;;4971658;28;20466;-82
2020/12/17 03:05:20;;;;;;;31.87;26.60;;;4.30;99.90;;;;;;4971664;28;20858;-82
2020/12/17 03:07:46;;;;;;;28.57;25.77;;;4.20;99.90;;;;;;4971429;28;20824;-82
2020/12/17 03:10:13;;;;;;;31.07;27.87;;;4.20;99.90;;;;;;4971800;28;20459;-81
2020/12/17 03:12:40;;;;;;;30.83;27.83;;;4.20;99.90;;;;;;4971319;28;20498;-81
2020/12/17 03:15:07;;;;;;;33.73;30.17;;;4.20;99.90;;;;;;4970997;28;20491;-80
2020/12/17 03:17:34;;;;;;;35.23;31.77;;;4.10;99.90;;;;;;4971387;28;20474;-81
2020/12/17 03:20:00;;;;;;;33.77;29.30;;;4.10;99.90;;;;;;4971568;28;20575;-81
2020/12/17 03:22:27;;;;;;;32.37;29.27;;;4.10;99.90;;;;;;4971533;28;20459;-80
2020/12/17 03:24:53;;;;;;;32.07;28.57;;;4.10;99.90;;;;;;4971335;28;20451;-80
2020/12/17 03:27:19;;;;;;;31.43;28.13;;;4.10;99.90;;;;;;4970924;28;20451;-81
2020/12/17 03:29:45;;;;;;;30.40;27.07;;;4.10;99.90;;;;;;4971030;28;20463;-81
2020/12/17 03:32:11;;;;;;;30.13;27.30;;;4.10;99.90;;;;;;4971430;28;20455;-80
2020/12/17 03:34:38;;;;;;;29.17;26.30;;;4.10;99.90;;;;;;4971005;28;20992;-81
2020/12/17 03:37:04;;;;;;;31.67;28.47;;;4.10;99.90;;;;;;4971474;28;20454;-81
2020/12/17 03:39:30;;;;;;;30.90;27.80;;;4.10;99.90;;;;;;4971006;28;20545;-77
2020/12/17 03:41:57;;;;;;;25.30;23.10;;;4.00;99.90;;;;;;4971719;28;20820;-77
2020/12/17 03:44:23;;;;;;;29.23;26.40;;;4.00;99.90;;;;;;4971579;28;20471;-77
2020/12/17 03:46:49;;;;;;;28.07;25.47;;;4.00;99.90;;;;;;4971557;28;20451;-77
2020/12/17 03:49:15;;;;;;;25.77;23.50;;;4.00;99.90;;;;;;4971302;28;20454;-77
2020/12/17 03:51:42;;;;;;;27.63;23.73;;;4.10;99.90;;;;;;4975344;28;20454;-77
2020/12/17 03:54:08;;;;;;;31.30;28.20;;;4.00;99.90;;;;;;4974893;28;20479;-77
2020/12/17 03:56:34;;;;;;;32.03;28.83;;;4.00;99.90;;;;;;4974657;28;20450;-79
2020/12/17 03:59:01;;;;;;;28.60;25.97;;;4.10;99.90;;;;;;4974615;28;20455;-78
2020/12/17 04:01:27;;;;;;;26.40;24.20;;;4.00;99.90;;;;;;4974903;28;20455;-79
2020/12/17 04:03:53;;;;;;;30.50;27.50;;;4.00;99.90;;;;;;4974965;28;20462;-78
2020/12/17 04:06:19;;;;;;;25.10;22.70;;;3.90;99.90;;;;;;4974938;28;20705;-78
2020/12/17 04:08:46;;;;;;;24.70;22.37;;;3.80;99.90;;;;;;4974630;28;20451;-84
2020/12/17 04:11:12;;;;;;;24.80;22.60;;;3.80;99.90;;;;;;4974696;28;20454;-82
2020/12/17 04:13:39;;;;;;;23.03;21.10;;;3.80;99.90;;;;;;4974808;28;20504;-82
2020/12/17 04:16:05;;;;;;;26.20;23.60;;;3.70;99.90;;;;;;4974342;28;20679;-81
2020/12/17 04:18:31;;;;;;;23.43;21.57;;;3.80;99.90;;;;;;4974537;28;20824;-81
2020/12/17 04:20:58;;;;;;;27.87;25.30;;;3.70;99.90;;;;;;4974369;28;20492;-81
2020/12/17 04:23:24;;;;;;;26.10;23.80;;;3.70;99.90;;;;;;4973975;28;20458;-82
2020/12/17 04:25:51;;;;;;;25.23;23.03;;;3.70;99.90;;;;;;4974154;28;20456;-81
2020/12/17 04:28:17;;;;;;;27.60;24.90;;;3.70;99.90;;;;;;4974031;28;20953;-82
2020/12/17 04:30:43;;;;;;;28.27;25.80;;;3.70;99.90;;;;;;4974376;28;20477;-81
2020/12/17 04:33:09;;;;;;;24.50;22.27;;;3.70;99.90;;;;;;4974226;28;20449;-82
2020/12/17 04:35:36;;;;;;;23.87;21.63;;;3.70;99.90;;;;;;4973710;28;20449;-81
2020/12/17 04:38:02;;;;;;;25.00;22.60;;;3.80;99.90;;;;;;4973946;28;20448;-82
2020/12/17 04:40:28;;;;;;;27.17;24.70;;;3.80;99.90;;;;;;4974057;28;20490;-82
2020/12/17 04:42:56;;;;;;;27.93;25.30;;;3.80;99.90;;;;;;4973841;28;20458;-82
2020/12/17 04:45:24;;;;;;;31.13;28.10;;;3.80;99.90;;;;;;4973448;28;20478;-85
2020/12/17 04:47:53;;;;;;;27.87;25.37;;;3.90;99.90;;;;;;4973719;28;20501;-82
2020/12/17 04:50:22;;;;;;;24.57;22.53;;;3.90;99.90;;;;;;4974154;28;20449;-82
2020/12/17 04:52:52;;;;;;;24.67;22.47;;;3.90;99.90;;;;;;4973803;28;20451;-83
2020/12/17 04:55:19;;;;;;;23.27;21.37;;;3.90;99.90;;;;;;4974247;28;20432;-84
2020/12/17 04:57:47;;;;;;;25.43;23.27;;;3.90;99.90;;;;;;4982509;28;20819;-83
2020/12/17 05:00:14;;;;;;;22.77;20.87;;;3.90;99.90;;;;;;4978878;28;20532;-85
2020/12/17 05:02:45;;;;;;;23.97;21.57;;;4.00;99.90;;;;;;4973291;28;20849;-70
2020/12/17 05:05:11;;;;;;;19.33;17.70;;;4.00;99.90;;;;;;4973862;28;20466;-81
2020/12/17 05:07:37;;;;;;;23.10;21.00;;;4.00;99.90;;;;;;4973284;28;20452;-80
2020/12/17 05:10:11;;;;;;;24.33;22.13;;;4.00;99.90;;;;;;4973342;28;20506;-80
2020/12/17 05:12:37;;;;;;;20.83;19.13;;;3.90;99.90;;;;;;4972988;28;20459;-80
2020/12/17 05:15:04;;;;;;;19.57;18.07;;;3.80;99.90;;;;;;4973106;28;20494;-80
2020/12/17 05:17:32;;;;;;;20.73;19.10;;;3.70;99.90;;;;;;4973359;28;21619;-83
2020/12/17 05:19:58;;;;;;;20.70;19.07;;;3.70;99.90;;;;;;4973590;28;20495;-85
2020/12/17 05:22:25;;;;;;;19.73;18.03;;;3.60;99.90;;;;;;4973681;28;20846;-82
2020/12/17 05:24:51;;;;;;;21.87;19.87;;;3.60;99.90;;;;;;4973392;28;20450;-83
2020/12/17 05:27:18;;;;;;;20.47;18.73;;;3.60;99.90;;;;;;4972881;28;20466;-83
2020/12/17 05:29:44;;;;;;;23.27;21.23;;;3.70;99.90;;;;;;4973284;28;20944;-87
2020/12/17 05:32:12;;;;;;;22.73;20.90;;;3.70;99.90;;;;;;4973001;28;20513;-82
2020/12/17 05:34:39;;;;;;;22.53;20.73;;;3.80;99.90;;;;;;4972964;28;20455;-82
2020/12/17 05:37:07;;;;;;;22.93;21.03;;;3.80;99.90;;;;;;4972772;28;20977;-82
2020/12/17 05:39:41;;;;;;;22.03;20.23;;;3.80;99.90;;;;;;4973014;28;20484;-83
2020/12/17 05:42:10;;;;;;;22.30;20.50;;;3.80;99.90;;;;;;4972525;28;20463;-84
2020/12/17 05:44:37;;;;;;;24.80;22.73;;;3.80;99.90;;;;;;4972634;28;20455;-84
2020/12/17 05:47:03;;;;;;;25.80;23.50;;;3.80;99.90;;;;;;4972966;28;20458;-83
2020/12/17 05:49:30;;;;;;;27.63;24.93;;;3.80;99.90;;;;;;4973010;28;20936;-81
2020/12/17 05:52:11;;;;;;;26.60;24.00;;;3.80;99.90;;;;;;4978804;28;20450;-82
2020/12/17 05:54:42;;;;;;;24.07;21.90;;;3.70;99.90;;;;;;4992041;28;20431;-83
2020/12/17 05:57:09;;;;;;;22.87;20.87;;;3.70;99.90;;;;;;4983081;28;20499;-82
2020/12/17 05:59:36;;;;;;;23.33;21.20;;;3.60;99.90;;;;;;4973391;28;20494;-84
2020/12/17 06:02:25;;;;;;;26.50;23.80;;;3.60;99.90;;;;;;4977681;28;20454;-89
2020/12/17 06:05:03;;;;;;;26.87;24.27;;;3.60;99.90;;;;;;4973362;28;20812;-86
2020/12/17 06:07:39;;;;;;;27.73;24.57;;;3.60;99.90;;;;;;4972639;28;20453;-88
2020/12/17 06:15:18;;;;;;;28.73;25.80;;;3.60;99.90;;;;;;5063102;23;20844;-84
2020/12/17 06:17:50;;;;;;;29.30;26.60;;;3.70;99.90;;;;;;4991644;28;20452;-84
2020/12/17 06:20:17;;;;;;;22.60;20.33;;;3.70;99.90;;;;;;4991434;28;20514;-82
2020/12/17 06:22:50;;;;;;;25.17;22.93;;;3.80;99.90;;;;;;4991640;28;20506;-82
2020/12/17 06:25:17;;;;;;;28.63;26.23;;;3.70;99.90;;;;;;4991685;28;20538;-82
2020/12/17 06:27:46;;;;;;;26.90;24.40;;;3.70;99.90;;;;;;4991726;28;20497;-84
2020/12/17 06:30:15;;;;;;;28.30;25.60;;;3.70;99.90;;;;;;4991843;28;20978;-84
2020/12/17 06:32:41;;;;;;;28.77;25.40;;;3.70;99.90;;;;;;4991984;28;20456;-84
2020/12/17 06:35:14;;;;;;;30.27;27.37;;;3.70;99.90;;;;;;4991185;28;20991;-85
2020/12/17 06:37:40;;;;;;;29.30;26.57;;;3.70;99.90;;;;;;4991668;28;20464;-78
2020/12/17 06:40:07;;;;;;;30.90;27.67;;;3.70;99.90;;;;;;4991083;28;20493;-82
2020/12/17 06:42:35;;;;;;;30.93;27.67;;;3.70;99.90;;;;;;4991484;28;20465;-84
2020/12/17 06:45:02;;;;;;;29.73;26.70;;;3.60;99.90;;;;;;4991227;28;20461;-80
2020/12/17 06:47:29;;;;;;;30.90;27.80;;;3.60;99.90;;;;;;4991208;28;20826;-78
2020/12/17 06:49:55;;;;;;;29.57;26.60;;;3.60;99.90;;;;;;4991147;28;20438;-77
2020/12/17 06:52:22;;;;;;;29.93;26.73;;;3.70;99.90;;;;;;4991098;28;20944;-77
2020/12/17 06:54:48;;;;;;;34.93;27.10;;;3.70;99.90;;;;;;4991136;28;20452;-78
2020/12/17 06:57:16;;;;;;;27.97;25.20;;;3.70;99.90;;;;;;4990799;28;20458;-78
2020/12/17 06:59:44;;;;;;;27.83;25.03;;;3.70;99.90;;;;;;4990983;28;20497;-78
2020/12/17 07:02:15;;;;;;;26.50;24.20;;;3.80;99.90;;;;;;4990899;28;20555;-78
2020/12/17 07:04:43;;;;;;;28.17;25.23;;;3.80;99.90;;;;;;4991543;28;20435;-83
2020/12/17 07:07:14;;;;;;;35.03;25.47;;;3.70;99.90;;;;;;4990623;28;20462;-83
2020/12/17 07:09:40;;;;;;;28.87;25.80;;;3.70;99.90;;;;;;4990876;28;20442;-81
2020/12/17 07:12:07;;;;;;;29.67;26.80;;;3.70;99.90;;;;;;4991038;28;20856;-80
2020/12/17 07:14:35;;;;;;;28.23;25.23;;;3.70;99.90;;;;;;4990679;28;21025;-80
2020/12/17 07:17:04;;;;;;;30.00;24.90;;;3.70;99.90;;;;;;4990936;28;20457;-81
2020/12/17 07:19:31;;;;;;;29.77;26.77;;;3.80;99.90;;;;;;4991262;28;20451;-84
2020/12/17 07:22:03;;;;;;;27.97;25.30;;;3.80;99.90;;;;;;4990871;28;20476;-81
2020/12/17 07:24:31;;;;;;;28.70;26.00;;;3.90;99.90;;;;;;4991646;28;20449;-85
2020/12/17 07:27:06;;;;;;;27.67;24.87;;;3.90;99.90;;;;;;4997232;28;21031;-86
2020/12/17 07:29:43;;;;;;;26.20;23.60;;;3.90;99.90;;;;;;4995000;28;20509;-72
2020/12/17 07:32:33;;;;;;;26.57;24.07;;;4.00;99.90;;;;;;4994117;28;20454;-72
2020/12/17 07:35:15;;;;;;;26.30;23.77;;;4.00;99.90;;;;;;4994211;28;20456;-72
2020/12/17 07:37:43;;;;;;;25.73;23.40;;;4.00;99.90;;;;;;4995133;28;20488;-81
2020/12/17 07:40:30;;;;;;;25.97;23.57;;;4.10;99.90;;;;;;4994092;28;20556;-73
2020/12/17 07:43:10;;;;;;;28.17;25.47;;;4.10;99.90;;;;;;4994509;28;20454;-78
2020/12/17 07:45:46;;;;;;;28.33;25.90;;;4.20;99.90;;;;;;4994602;28;20517;-81
2020/12/17 07:48:32;;;;;;;29.73;26.73;;;4.20;99.90;;;;;;4998808;28;20446;-82
2020/12/17 07:50:59;;;;;;;27.97;25.40;;;4.40;99.90;;;;;;4996712;28;20511;-81
2020/12/17 07:53:26;;;;;;;23.80;21.50;;;4.50;99.90;;;;;;4994288;28;20461;-81
2020/12/17 07:55:53;;;;;;;24.80;22.53;;;4.70;99.90;;;;;;4993927;28;20966;-82
2020/12/17 07:58:19;;;;;;;25.23;22.60;;;5.00;99.90;;;;;;4993395;28;20464;-83
2020/12/17 08:00:46;;;;;;;23.80;21.40;;;5.20;99.90;;;;;;4994358;28;20539;-80
2020/12/17 08:03:13;;;;;;;21.87;19.53;;;5.40;99.90;;;;;;4997301;28;20456;-82
2020/12/17 08:05:39;;;;;;;22.80;20.77;;;5.60;99.90;;;;;;5014483;28;20443;-82
2020/12/17 08:08:06;;;;;;;23.53;21.50;;;5.50;99.90;;;;;;5010102;28;20448;-81
2020/12/17 08:10:38;;;;;;;24.23;21.87;;;5.60;99.90;;;;;;4994572;28;20457;-79
2020/12/17 08:13:05;;;;;;;21.80;20.00;;;5.90;99.90;;;;;;4990950;28;20540;-80
2020/12/17 08:15:31;;;;;;;19.73;18.03;;;6.40;99.90;;;;;;4994327;28;20503;-81
2020/12/17 08:17:58;;;;;;;21.03;19.23;;;6.30;99.90;;;;;;4993661;28;20514;-80
2020/12/17 08:20:25;;;;;;;18.50;17.00;;;6.00;99.90;;;;;;4993805;28;20494;-81
2020/12/17 08:22:52;;;;;;;17.90;16.50;;;6.00;99.90;;;;;;4993855;28;20451;-80
2020/12/17 08:25:19;;;;;;;20.33;18.03;;;6.00;99.90;;;;;;4993762;28;20464;-80
2020/12/17 08:27:45;;;;;;;19.77;18.33;;;6.00;99.90;;;;;;4993918;28;20452;-81
2020/12/17 08:30:12;;;;;;;20.67;18.60;;;6.00;99.90;;;;;;4994244;28;20532;-83
2020/12/17 08:32:47;;;;;;;20.93;18.90;;;6.10;99.90;;;;;;4995341;28;20458;-79
2020/12/17 08:35:19;;;;;;;20.73;19.10;;;6.00;99.90;;;;;;4993911;28;20538;-82
2020/12/17 08:37:45;;;;;;;19.93;17.90;;;6.00;99.90;;;;;;4990104;28;20461;-81
2020/12/17 08:40:13;;;;;;;19.77;17.73;;;6.10;99.90;;;;;;4993340;28;20896;-81
2020/12/17 08:42:46;;;;;;;21.93;19.93;;;6.10;99.90;;;;;;4992815;28;20458;-81
2020/12/17 08:45:14;;;;;;;22.37;20.03;;;6.20;99.90;;;;;;4993398;28;20503;-81
2020/12/17 08:47:42;;;;;;;19.90;18.17;;;6.30;99.90;;;;;;4993022;28;20473;-81
2020/12/17 08:50:10;;;;;;;20.40;18.63;;;6.30;99.90;;;;;;4993080;28;20478;-80
2020/12/17 08:52:37;;;;;;;24.00;18.60;;;6.30;99.90;;;;;;4992711;28;20453;-82
2020/12/17 08:55:05;;;;;;;19.40;17.70;;;6.30;99.90;;;;;;4992998;28;20460;-80
2020/12/17 08:57:32;;;;;;;25.67;23.10;;;6.40;99.90;;;;;;4992908;28;20451;-80
2020/12/17 08:59:58;;;;;;;23.57;21.10;;;6.50;99.90;;;;;;4992837;28;20487;-80
2020/12/17 09:02:25;;;;;;;18.03;16.63;;;6.40;99.90;;;;;;4992703;28;20460;-79
2020/12/17 09:04:56;;;;;;;21.73;19.60;;;6.30;99.90;;;;;;4992590;28;20516;-79
2020/12/17 09:07:26;;;;;;;19.90;17.80;;;6.30;99.90;;;;;;4990662;28;20483;-80
2020/12/17 09:09:53;;;;;;;20.50;18.70;;;6.30;99.90;;;;;;4992494;28;20515;-79
2020/12/17 09:12:28;;;;;;;18.90;17.47;;;6.40;99.90;;;;;;4992583;28;20460;-79
2020/12/17 09:14:55;;;;;;;20.27;18.40;;;6.50;99.90;;;;;;4992274;28;20532;-79
2020/12/17 09:17:21;;;;;;;19.50;18.00;;;6.50;99.90;;;;;;4992401;28;20701;-80
2020/12/17 09:19:49;;;;;;;22.07;20.37;;;6.40;99.90;;;;;;4992172;28;21064;-79
2020/12/17 09:22:19;;;;;;;20.63;19.00;;;6.30;99.90;;;;;;4991762;28;20465;-80
2020/12/17 09:24:47;;;;;;;19.53;17.97;;;6.30;99.90;;;;;;4992710;28;20553;-81
2020/12/17 09:27:16;;;;;;;18.90;17.00;;;6.30;99.90;;;;;;4992581;28;20454;-81
2020/12/17 09:29:43;;;;;;;18.93;16.37;;;6.40;99.90;;;;;;4992715;28;20498;-81
2020/12/17 09:32:18;;;;;;;17.00;15.70;;;6.50;99.90;;;;;;4992808;28;20458;-81
2020/12/17 09:34:44;;;;;;;17.60;16.20;;;6.50;99.90;;;;;;4992744;28;20979;-81
2020/12/17 09:37:11;;;;;;;17.03;15.83;;;6.60;99.90;;;;;;4992618;28;20465;-82
2020/12/17 09:39:42;;;;;;;17.73;16.47;;;6.70;99.90;;;;;;4992489;28;20480;-79
2020/12/17 09:42:09;;;;;;;17.10;15.90;;;6.70;99.90;;;;;;4992214;28;20482;-80
2020/12/17 09:44:36;;;;;;;18.07;16.67;;;6.80;99.90;;;;;;4992439;28;20460;-83
2020/12/17 09:47:03;;;;;;;17.60;16.33;;;6.90;99.90;;;;;;4992468;28;20509;-80
2020/12/17 09:49:32;;;;;;;18.00;16.70;;;7.10;99.90;;;;;;4992264;28;20549;-80
2020/12/17 09:52:07;;;;;;;18.33;16.87;;;7.20;99.90;;;;;;4992519;28;20513;-76
2020/12/17 09:54:34;;;;;;;17.80;16.40;;;7.40;99.90;;;;;;4992034;28;20827;-77
2020/12/17 09:57:02;;;;;;;17.87;16.47;;;8.40;99.90;;;;;;4992186;28;20444;-76
2020/12/17 09:59:28;;;;;;;18.67;17.17;;;9.40;99.90;;;;;;4992299;28;20979;-77
2020/12/17 10:01:57;;;;;;;21.70;19.63;;;10.30;99.90;;;;;;4991876;28;20482;-77
2020/12/17 10:04:23;;;;;;;23.07;20.00;;;10.70;99.90;;;;;;4991711;28;20991;-77
2020/12/17 10:06:49;;;;;;;19.97;18.67;;;10.70;99.90;;;;;;4991665;28;20653;-78
2020/12/17 10:09:15;;;;;;;18.17;16.87;;;11.00;99.90;;;;;;4991597;28;20458;-78
2020/12/17 10:11:46;;;;;;;17.90;16.50;;;10.60;99.90;;;;;;4991627;28;20455;-79
2020/12/17 10:14:12;;;;;;;16.40;14.90;;;10.20;99.90;;;;;;4991470;28;20515;-80
2020/12/17 10:16:38;;;;;;;16.10;15.10;;;9.90;99.90;;;;;;4991771;28;20459;-78
2020/12/17 10:19:05;;;;;;;16.13;15.03;;;10.30;99.90;;;;;;4991592;28;20459;-78
2020/12/17 10:21:31;;;;;;;15.47;14.47;;;10.50;99.90;;;;;;4992405;28;21030;-79
2020/12/17 10:23:57;;;;;;;15.63;14.73;;;10.50;99.90;;;;;;4994544;28;20454;-79
2020/12/17 10:26:24;;;;;;;15.80;14.90;;;10.90;99.90;;;;;;5002040;28;20457;-84
2020/12/17 10:28:50;;;;;;;15.77;14.90;;;10.70;99.90;;;;;;4993328;28;20462;-84
2020/12/17 10:31:17;;;;;;;14.10;13.40;;;10.40;99.90;;;;;;4996074;28;20932;-80
2020/12/17 10:33:43;;;;;;;14.23;13.20;;;10.20;99.90;;;;;;4992063;28;20461;-83
2020/12/17 10:36:10;;;;;;;15.80;14.97;;;10.30;99.90;;;;;;4992383;28;20467;-83
2020/12/17 10:38:36;;;;;;;16.00;14.87;;;10.40;99.90;;;;;;5000477;28;20458;-85
2020/12/17 10:41:03;;;;;;;14.40;13.40;;;10.10;99.90;;;;;;4998301;28;20484;-87
2020/12/17 10:43:29;;;;;;;15.80;14.80;;;9.50;99.90;;;;;;4992773;28;20458;-85
2020/12/17 10:45:55;;;;;;;15.83;14.63;;;9.30;99.90;;;;;;4991395;28;20458;-79
2020/12/17 10:48:21;;;;;;;15.67;14.70;;;9.80;99.90;;;;;;4983373;28;20497;-77
2020/12/17 10:50:48;;;;;;;13.67;12.97;;;10.50;99.90;;;;;;4977115;28;20468;-82
2020/12/17 10:53:15;;;;;;;15.73;14.73;;;10.90;99.90;;;;;;4988829;28;20497;-77
2020/12/17 10:55:41;;;;;;;15.27;14.17;;;10.80;99.90;;;;;;4988964;28;21014;-77
2020/12/17 10:58:08;;;;;;;14.67;13.77;;;11.20;99.90;;;;;;4971765;28;20456;-77
2020/12/17 11:00:35;;;;;;;13.90;13.07;;;11.50;99.90;;;;;;4971134;28;20495;-77
2020/12/17 11:03:01;;;;;;;13.57;12.77;;;11.30;99.90;;;;;;4971867;28;20550;-77
2020/12/17 11:05:27;;;;;;;13.47;12.67;;;11.30;99.90;;;;;;4983763;28;20517;-76
2020/12/17 11:07:53;;;;;;;14.27;13.40;;;11.30;99.90;;;;;;4991227;28;20481;-77
2020/12/17 11:10:20;;;;;;;13.97;13.17;;;11.30;99.90;;;;;;4991216;28;20462;-81
2020/12/17 11:12:46;;;;;;;14.57;13.10;;;11.70;99.90;;;;;;4991298;28;20879;-82
2020/12/17 11:15:12;;;;;;;13.70;12.43;;;11.50;99.90;;;;;;4991558;28;20490;-81
2020/12/17 11:17:39;;;;;;;14.30;13.40;;;11.10;99.90;;;;;;4991199;28;20467;-83
2020/12/17 11:20:05;;;;;;;12.90;12.20;;;10.70;99.90;;;;;;4991449;28;20486;-86
2020/12/17 11:22:31;;;;;;;15.13;14.03;;;10.40;99.90;;;;;;4979439;28;20816;-86
2020/12/17 11:24:57;;;;;;;13.60;12.60;;;10.20;99.90;;;;;;4972152;28;20471;-85
2020/12/17 11:27:24;;;;;;;15.53;14.37;;;10.20;99.90;;;;;;4988419;28;20466;-85
2020/12/17 11:29:50;;;;;;;13.23;12.53;;;10.30;99.90;;;;;;4991472;28;20462;-84
2020/12/17 11:32:19;;;;;;;13.57;12.57;;;10.30;99.90;;;;;;4992082;28;20443;-85
2020/12/17 11:34:46;;;;;;;14.07;12.97;;;10.30;99.90;;;;;;4991769;28;20485;-87
2020/12/17 11:37:13;;;;;;;13.73;12.93;;;10.40;99.90;;;;;;4991578;28;20811;-88
2020/12/17 11:39:39;;;;;;;14.37;13.07;;;10.40;99.90;;;;;;4991449;28;20485;-85
2020/12/17 11:42:05;;;;;;;14.80;13.67;;;10.40;99.90;;;;;;4991241;28;20508;-87
2020/12/17 11:44:32;;;;;;;14.33;13.40;;;10.50;99.90;;;;;;4990970;28;20875;-87
2020/12/17 11:46:59;;;;;;;15.73;14.50;;;10.70;99.90;;;;;;4991347;28;20454;-86
2020/12/17 11:49:25;;;;;;;14.73;13.63;;;10.90;99.90;;;;;;4991488;28;20458;-85
2020/12/17 11:51:51;;;;;;;13.63;12.83;;;11.10;99.90;;;;;;4991179;28;20458;-85
2020/12/17 11:54:18;;;;;;;14.07;13.07;;;11.10;99.90;;;;;;4991344;28;20529;-85
2020/12/17 11:56:45;;;;;;;14.03;13.20;;;11.20;99.90;;;;;;4991032;28;20451;-84
2020/12/17 11:59:12;;;;;;;13.53;12.60;;;11.10;99.90;;;;;;4991986;28;20473;-81
2020/12/17 12:01:41;;;;;;;12.57;11.87;;;11.10;99.90;;;;;;4991616;28;20545;-80
2020/12/17 12:04:08;;;;;;;13.73;12.63;;;11.20;99.90;;;;;;4989367;28;20458;-81
2020/12/17 12:06:34;;;;;;;13.10;12.30;;;11.40;99.90;;;;;;4990430;28;20560;-81
2020/12/17 12:09:00;;;;;;;12.77;12.17;;;11.70;99.90;;;;;;4990663;28;20458;-80
2020/12/17 12:11:26;;;;;;;14.07;13.27;;;11.90;99.90;;;;;;4990687;28;20442;-80
2020/12/17 12:13:52;;;;;;;13.13;12.07;;;12.30;99.90;;;;;;4993441;28;20540;-80
2020/12/17 12:16:19;;;;;;;12.50;11.70;;;12.30;99.90;;;;;;4994023;28;20474;-81
2020/12/17 12:18:48;;;;;;;12.70;12.00;;;12.30;99.90;;;;;;4994290;28;20983;-81
2020/12/17 12:21:15;;;;;;;13.07;11.97;;;12.30;99.90;;;;;;4994234;28;20487;-81
2020/12/17 12:23:42;;;;;;;14.67;13.83;;;12.20;99.90;;;;;;4993901;28;20442;-81
2020/12/17 12:26:09;;;;;;;12.83;11.53;;;12.40;99.90;;;;;;4993654;28;20538;-81
2020/12/17 12:28:35;;;;;;;15.07;13.83;;;12.70;99.90;;;;;;4993754;28;20482;-81
2020/12/17 12:31:04;;;;;;;14.97;13.67;;;12.80;99.90;;;;;;4993779;28;20512;-82
2020/12/17 12:33:32;;;;;;;15.73;14.10;;;12.80;99.90;;;;;;4993693;28;20991;-82
2020/12/17 12:35:59;;;;;;;13.33;12.43;;;13.00;99.90;;;;;;4993814;28;20450;-81
2020/12/17 12:38:25;;;;;;;14.67;13.30;;;13.20;99.90;;;;;;4993977;28;20451;-81
2020/12/17 12:40:52;;;;;;;13.70;13.00;;;13.40;99.90;;;;;;4993515;28;20572;-83
2020/12/17 12:43:18;;;;;;;14.70;13.90;;;13.40;99.90;;;;;;4990945;28;20462;-78
2020/12/17 12:45:44;;;;;;;14.80;13.63;;;13.50;99.90;;;;;;4993461;28;20472;-80
2020/12/17 12:48:10;;;;;;;15.20;13.90;;;13.70;99.90;;;;;;5005528;28;20478;-81
2020/12/17 12:50:36;;;;;;;16.00;14.93;;;13.30;99.90;;;;;;5006210;28;20458;-79
2020/12/17 12:53:03;;;;;;;16.10;14.90;;;13.40;99.90;;;;;;5001431;28;20945;-81
2020/12/17 12:55:30;;;;;;;14.17;13.20;;;13.40;99.90;;;;;;4995588;28;20458;-81
2020/12/17 12:57:56;;;;;;;15.40;14.17;;;13.30;99.90;;;;;;4994557;28;20451;-81
2020/12/17 13:00:23;;;;;;;14.90;14.07;;;13.10;99.90;;;;;;4993661;28;20506;-80